Time;durP1;ratioP1;P1;durP2;ratioP2;P2;SDS_P1;SDS_P2;PMS_P1;PMS_P2;Temp;Humidity;BMP_temperature;BMP_pressure;BME280_temperature;BME280_humidity;BME280_pressure;Samples;Min_cycle;Max_cycle;Signal;HPM_P1;HPM_P2
2022/09/04 00:00:45;;;;;;;20.90;19.80;;;;;;;;;;5057058;28;20782;-81
2022/09/04 00:03:17;;;;;;;22.53;21.30;;;;;;;;;;5056714;28;20412;-81
2022/09/04 00:05:47;;;;;;;22.00;20.90;;;;;;;;;;5059988;28;20815;-80
2022/09/04 00:08:21;;;;;;;21.57;20.47;;;;;;;;;;5061521;28;20457;-80
2022/09/04 00:10:52;;;;;;;21.33;20.23;;;;;;;;;;5060149;28;20968;-81
2022/09/04 00:13:26;;;;;;;22.37;21.27;;;;;;;;;;5057793;28;20420;-79
2022/09/04 00:15:58;;;;;;;22.13;21.03;;;;;;;;;;5059090;28;20479;-81
2022/09/04 00:18:29;;;;;;;22.07;20.77;;;;;;;;;;5059655;28;20787;-80
2022/09/04 00:21:00;;;;;;;22.00;20.83;;;;;;;;;;5059104;28;20441;-82
2022/09/04 00:23:30;;;;;;;21.57;20.40;;;;;;;;;;5058767;28;20411;-81
2022/09/04 00:26:01;;;;;;;22.07;20.90;;;;;;;;;;5057870;28;20456;-81
2022/09/04 00:28:33;;;;;;;21.83;20.63;;;;;;;;;;5057682;28;20485;-81
2022/09/04 00:31:08;;;;;;;22.07;20.97;;;;;;;;;;5057470;28;20504;-81
2022/09/04 00:33:41;;;;;;;22.53;21.23;;;;;;;;;;5059055;28;20437;-81
2022/09/04 00:36:08;;;;;;;22.57;21.27;;;;;;;;;;5058068;28;20464;-81
2022/09/04 00:38:41;;;;;;;22.53;21.33;;;;;;;;;;5057634;28;20811;-81
2022/09/04 00:41:12;;;;;;;22.33;21.07;;;;;;;;;;5056984;28;20475;-81
2022/09/04 00:43:51;;;;;;;21.57;20.37;;;;;;;;;;5056930;28;20400;-81
2022/09/04 00:46:26;;;;;;;23.57;22.23;;;;;;;;;;5056533;28;20533;-80
2022/09/04 00:49:04;;;;;;;22.40;21.20;;;;;;;;;;5059501;28;20534;-81
2022/09/04 00:51:36;;;;;;;21.70;20.60;;;;;;;;;;5058839;28;20457;-81
2022/09/04 00:54:22;;;;;;;22.40;21.20;;;;;;;;;;5058556;28;20439;-81
2022/09/04 00:57:12;;;;;;;21.50;20.40;;;;;;;;;;5057722;28;20451;-81
2022/09/04 00:59:56;;;;;;;21.70;20.53;;;;;;;;;;5057404;28;20475;-81
2022/09/04 01:02:27;;;;;;;22.30;21.07;;;;;;;;;;5058341;28;20417;-81
2022/09/04 01:04:58;;;;;;;21.73;20.53;;;;;;;;;;5060621;28;20518;-81
2022/09/04 01:07:36;;;;;;;22.47;21.27;;;;;;;;;;5059446;28;20846;-81
2022/09/04 01:10:15;;;;;;;22.20;21.00;;;;;;;;;;5057915;28;20472;-81
2022/09/04 01:12:45;;;;;;;22.27;21.10;;;;;;;;;;5056830;28;20448;-81
2022/09/04 01:15:17;;;;;;;21.90;20.70;;;;;;;;;;5055973;28;20426;-80
2022/09/04 01:17:59;;;;;;;22.20;21.00;;;;;;;;;;5055485;28;20455;-80
2022/09/04 01:20:31;;;;;;;21.57;20.33;;;;;;;;;;5055727;28;20410;-80
2022/09/04 01:23:09;;;;;;;22.90;21.70;;;;;;;;;;5055300;28;20439;-80
2022/09/04 01:26:00;;;;;;;22.53;21.33;;;;;;;;;;5055421;28;20899;-81
2022/09/04 01:28:33;;;;;;;22.27;21.07;;;;;;;;;;5049083;28;20492;-80
2022/09/04 01:31:04;;;;;;;21.73;20.43;;;;;;;;;;5054894;28;20942;-80
2022/09/04 01:33:36;;;;;;;21.60;20.50;;;;;;;;;;5055305;28;20869;-80
2022/09/04 01:36:06;;;;;;;21.63;20.33;;;;;;;;;;5056608;28;20420;-81
2022/09/04 01:38:38;;;;;;;22.10;20.97;;;;;;;;;;5054580;28;20458;-80
2022/09/04 01:41:11;;;;;;;22.00;20.80;;;;;;;;;;5054976;28;20435;-81
2022/09/04 01:43:40;;;;;;;21.83;20.63;;;;;;;;;;5055424;28;20434;-81
2022/09/04 01:46:22;;;;;;;21.63;20.47;;;;;;;;;;5056250;28;20425;-80
2022/09/04 01:48:55;;;;;;;21.47;20.30;;;;;;;;;;5039762;28;20485;-80
2022/09/04 01:51:26;;;;;;;22.23;20.80;;;;;;;;;;5055825;28;20472;-81
2022/09/04 01:54:03;;;;;;;21.13;20.03;;;;;;;;;;5055561;28;20971;-81
2022/09/04 01:56:35;;;;;;;22.57;21.37;;;;;;;;;;5057316;28;20429;-80
2022/09/04 01:59:07;;;;;;;21.67;20.20;;;;;;;;;;5054356;28;20509;-80
2022/09/04 02:01:38;;;;;;;21.80;20.70;;;;;;;;;;5056147;28;20424;-81
2022/09/04 02:04:10;;;;;;;21.73;20.63;;;;;;;;;;5057572;28;20415;-81
2022/09/04 02:06:45;;;;;;;22.10;20.90;;;;;;;;;;5058940;28;20509;-80
2022/09/04 02:09:19;;;;;;;21.73;20.63;;;;;;;;;;5057920;28;20514;-80
2022/09/04 02:11:52;;;;;;;21.10;20.00;;;;;;;;;;5058325;28;20451;-80
2022/09/04 02:14:28;;;;;;;21.40;20.30;;;;;;;;;;5057337;28;20533;-81
2022/09/04 02:17:05;;;;;;;21.60;20.50;;;;;;;;;;5056197;28;20436;-81
2022/09/04 02:19:38;;;;;;;21.83;20.63;;;;;;;;;;5059090;28;20463;-81
2022/09/04 02:22:11;;;;;;;21.70;20.50;;;;;;;;;;5055476;28;20427;-81
2022/09/04 02:24:42;;;;;;;21.60;20.43;;;;;;;;;;5054536;28;20407;-79
2022/09/04 02:27:13;;;;;;;22.17;21.07;;;;;;;;;;5054253;28;20423;-80
2022/09/04 02:29:45;;;;;;;21.17;19.97;;;;;;;;;;5052999;28;20461;-81
2022/09/04 02:32:18;;;;;;;22.00;20.90;;;;;;;;;;5053070;28;20466;-81
2022/09/04 02:34:50;;;;;;;21.33;20.23;;;;;;;;;;5053197;28;20465;-80
2022/09/04 02:37:22;;;;;;;21.97;20.67;;;;;;;;;;5053234;28;20392;-81
2022/09/04 02:39:54;;;;;;;21.60;20.50;;;;;;;;;;5052816;28;21118;-81
2022/09/04 02:42:25;;;;;;;21.70;20.60;;;;;;;;;;5053179;28;20433;-81
2022/09/04 02:44:59;;;;;;;22.43;21.23;;;;;;;;;;5053192;28;20427;-80
2022/09/04 02:47:32;;;;;;;21.90;20.70;;;;;;;;;;5055379;28;20936;-81
2022/09/04 02:50:02;;;;;;;22.23;21.03;;;;;;;;;;5056246;28;20449;-81
2022/09/04 02:52:36;;;;;;;22.13;20.93;;;;;;;;;;5055111;28;20818;-81
2022/09/04 02:55:16;;;;;;;22.27;20.90;;;;;;;;;;5055593;28;20423;-81
2022/09/04 02:57:56;;;;;;;22.17;21.00;;;;;;;;;;5055076;28;20911;-81
2022/09/04 03:00:31;;;;;;;21.90;20.80;;;;;;;;;;5054191;28;20413;-81
2022/09/04 03:03:00;;;;;;;22.77;21.57;;;;;;;;;;5053905;28;20400;-80
2022/09/04 03:05:30;;;;;;;22.30;21.10;;;;;;;;;;5053838;28;20465;-81
2022/09/04 03:08:00;;;;;;;21.73;20.63;;;;;;;;;;5053836;28;20390;-81
2022/09/04 03:10:31;;;;;;;23.40;22.17;;;;;;;;;;5053995;28;20451;-81
2022/09/04 03:13:02;;;;;;;22.60;21.40;;;;;;;;;;5056201;28;20460;-81
2022/09/04 03:15:34;;;;;;;21.73;20.53;;;;;;;;;;5060553;28;20457;-81
2022/09/04 03:18:03;;;;;;;22.20;21.10;;;;;;;;;;5056927;28;20861;-81
2022/09/04 03:20:32;;;;;;;21.70;20.60;;;;;;;;;;5057493;28;20541;-81
2022/09/04 03:23:02;;;;;;;22.10;20.90;;;;;;;;;;5056095;28;20473;-81
2022/09/04 03:25:41;;;;;;;22.20;21.00;;;;;;;;;;5056984;28;20417;-80
2022/09/04 03:28:10;;;;;;;21.80;20.70;;;;;;;;;;4997002;28;1720362;-81
2022/09/04 03:30:40;;;;;;;22.37;21.07;;;;;;;;;;5058589;28;20424;-81
2022/09/04 03:33:13;;;;;;;22.17;20.67;;;;;;;;;;5059175;28;21078;-80
2022/09/04 03:35:43;;;;;;;21.57;20.47;;;;;;;;;;5057851;28;20452;-81
2022/09/04 03:38:16;;;;;;;21.00;19.90;;;;;;;;;;5058432;28;20451;-82
2022/09/04 03:40:46;;;;;;;22.07;20.87;;;;;;;;;;5061655;28;20417;-81
2022/09/04 03:43:31;;;;;;;21.43;20.23;;;;;;;;;;5065556;28;20448;-81
2022/09/04 03:46:04;;;;;;;22.07;20.87;;;;;;;;;;5067672;28;20430;-81
2022/09/04 03:48:40;;;;;;;21.97;20.67;;;;;;;;;;5066465;28;20472;-80
2022/09/04 03:51:13;;;;;;;21.57;20.37;;;;;;;;;;5058790;28;20417;-81
2022/09/04 03:53:42;;;;;;;20.73;19.60;;;;;;;;;;5067022;28;20496;-81
2022/09/04 03:56:33;;;;;;;21.93;20.57;;;;;;;;;;5066640;28;20529;-81
2022/09/04 03:59:03;;;;;;;20.90;19.80;;;;;;;;;;5057335;28;20973;-80
2022/09/04 04:01:37;;;;;;;22.10;20.90;;;;;;;;;;5056850;28;20915;-81
2022/09/04 04:04:17;;;;;;;20.50;19.33;;;;;;;;;;5056753;28;20437;-81
2022/09/04 04:06:47;;;;;;;22.50;21.40;;;;;;;;;;5057752;28;20427;-80
2022/09/04 04:09:30;;;;;;;21.83;20.63;;;;;;;;;;5061026;28;20454;-81
2022/09/04 04:12:16;;;;;;;22.50;21.20;;;;;;;;;;5056911;28;20520;-81
2022/09/04 04:14:52;;;;;;;21.60;20.40;;;;;;;;;;5043989;28;20451;-81
2022/09/04 04:17:30;;;;;;;22.00;20.80;;;;;;;;;;5057062;28;20393;-80
2022/09/04 04:20:04;;;;;;;22.23;21.03;;;;;;;;;;5056648;28;20509;-81
2022/09/04 04:22:49;;;;;;;22.20;21.00;;;;;;;;;;5056397;28;20489;-81
2022/09/04 04:25:24;;;;;;;22.47;21.27;;;;;;;;;;5056539;28;20445;-80
2022/09/04 04:28:06;;;;;;;23.30;22.00;;;;;;;;;;5057048;28;20443;-81
2022/09/04 04:30:38;;;;;;;21.97;20.67;;;;;;;;;;5057538;28;20456;-81
2022/09/04 04:33:15;;;;;;;22.73;21.53;;;;;;;;;;5059119;28;20484;-81
2022/09/04 04:35:50;;;;;;;21.70;20.60;;;;;;;;;;5058924;28;20456;-81
2022/09/04 04:38:26;;;;;;;22.00;20.80;;;;;;;;;;5059660;28;20432;-80
2022/09/04 04:41:01;;;;;;;22.13;20.93;;;;;;;;;;5056226;28;20425;-81
2022/09/04 04:43:32;;;;;;;22.20;21.00;;;;;;;;;;5056557;28;20423;-80
2022/09/04 04:46:03;;;;;;;22.27;21.07;;;;;;;;;;5056284;28;20454;-80
2022/09/04 04:48:48;;;;;;;22.47;21.17;;;;;;;;;;5056364;28;20517;-78
2022/09/04 04:51:31;;;;;;;22.87;21.47;;;;;;;;;;5055968;28;20464;-78
2022/09/04 04:54:03;;;;;;;23.30;22.00;;;;;;;;;;5013043;28;20539;-78
2022/09/04 04:56:33;;;;;;;22.27;21.07;;;;;;;;;;5055978;28;20446;-76
2022/09/04 04:59:04;;;;;;;21.13;20.03;;;;;;;;;;5056161;28;20839;-78
2022/09/04 05:01:41;;;;;;;22.57;21.37;;;;;;;;;;5056081;28;20994;-78
2022/09/04 05:04:11;;;;;;;22.87;21.37;;;;;;;;;;5055774;28;20527;-77
2022/09/04 05:06:42;;;;;;;22.00;20.80;;;;;;;;;;5056238;28;20468;-78
2022/09/04 05:09:15;;;;;;;22.10;20.90;;;;;;;;;;5055675;28;20479;-78
2022/09/04 05:11:47;;;;;;;22.57;21.37;;;;;;;;;;5055617;28;20437;-78
2022/09/04 05:14:22;;;;;;;21.50;20.30;;;;;;;;;;5055805;28;20411;-77
2022/09/04 05:16:53;;;;;;;21.40;20.30;;;;;;;;;;5055442;28;20468;-77
2022/09/04 05:19:26;;;;;;;21.63;20.40;;;;;;;;;;5055789;28;20468;-77
2022/09/04 05:21:58;;;;;;;21.50;20.40;;;;;;;;;;5055093;28;20517;-78
2022/09/04 05:24:31;;;;;;;21.50;20.40;;;;;;;;;;5056743;28;20859;-78
2022/09/04 05:27:01;;;;;;;22.10;20.90;;;;;;;;;;5056389;28;20447;-78
2022/09/04 05:29:32;;;;;;;21.90;20.70;;;;;;;;;;5055414;28;20457;-77
2022/09/04 05:32:04;;;;;;;21.87;20.60;;;;;;;;;;5054715;28;20433;-76
2022/09/04 05:34:36;;;;;;;21.53;20.43;;;;;;;;;;5054210;28;20456;-78
2022/09/04 05:37:08;;;;;;;21.73;20.63;;;;;;;;;;5055089;28;20479;-78
2022/09/04 05:39:44;;;;;;;22.00;20.80;;;;;;;;;;5055106;28;20472;-77
2022/09/04 05:42:21;;;;;;;21.67;20.30;;;;;;;;;;5054347;28;20437;-77
2022/09/04 05:44:55;;;;;;;21.90;20.80;;;;;;;;;;5055061;28;20416;-76
2022/09/04 05:47:28;;;;;;;23.20;22.00;;;;;;;;;;5054779;28;20475;-77
2022/09/04 05:50:06;;;;;;;23.07;21.87;;;;;;;;;;5054483;28;20438;-77
2022/09/04 05:52:39;;;;;;;23.57;22.10;;;;;;;;;;5055140;28;20479;-77
2022/09/04 05:55:24;;;;;;;21.53;20.43;;;;;;;;;;5054898;28;20437;-78
2022/09/04 05:57:59;;;;;;;22.50;21.30;;;;;;;;;;5054346;28;20419;-78
2022/09/04 06:00:29;;;;;;;22.17;20.97;;;;;;;;;;5052260;28;20450;-77
2022/09/04 06:03:04;;;;;;;21.93;20.83;;;;;;;;;;5036540;28;20421;-77
2022/09/04 06:05:37;;;;;;;21.50;20.30;;;;;;;;;;5053986;28;20411;-79
2022/09/04 06:08:11;;;;;;;21.03;19.83;;;;;;;;;;5062738;28;20440;-78
2022/09/04 06:10:47;;;;;;;21.57;20.47;;;;;;;;;;5035517;28;20434;-76
2022/09/04 06:13:32;;;;;;;21.30;20.20;;;;;;;;;;5035571;28;20810;-77
2022/09/04 06:16:08;;;;;;;20.77;19.67;;;;;;;;;;5042347;28;20444;-78
2022/09/04 06:18:44;;;;;;;23.07;21.87;;;;;;;;;;5038411;28;20443;-78
2022/09/04 06:21:36;;;;;;;21.57;20.47;;;;;;;;;;5034436;28;20411;-78
2022/09/04 06:24:11;;;;;;;21.30;20.20;;;;;;;;;;5035962;28;20416;-77
2022/09/04 06:26:52;;;;;;;21.20;20.10;;;;;;;;;;5035906;28;20409;-78
2022/09/04 06:29:36;;;;;;;20.20;19.07;;;;;;;;;;5035614;28;20475;-77
2022/09/04 06:32:21;;;;;;;21.43;20.23;;;;;;;;;;5034956;28;20982;-78
2022/09/04 06:35:02;;;;;;;21.90;20.60;;;;;;;;;;5034223;28;20421;-77
2022/09/04 06:37:35;;;;;;;21.20;19.80;;;;;;;;;;5034124;28;20420;-77
2022/09/04 06:40:09;;;;;;;20.83;19.70;;;;;;;;;;5034590;28;20535;-77
2022/09/04 06:42:43;;;;;;;21.27;20.17;;;;;;;;;;5034212;28;20472;-77
2022/09/04 06:45:20;;;;;;;21.10;19.90;;;;;;;;;;5034826;28;20955;-78
2022/09/04 06:47:55;;;;;;;21.33;20.10;;;;;;;;;;5036632;28;20464;-77
2022/09/04 06:50:24;;;;;;;21.93;20.83;;;;;;;;;;5034563;28;20423;-77
2022/09/04 06:53:01;;;;;;;21.40;20.20;;;;;;;;;;5034148;28;20493;-79
2022/09/04 06:55:32;;;;;;;21.40;20.30;;;;;;;;;;5034430;28;20431;-83
2022/09/04 06:58:20;;;;;;;20.80;19.70;;;;;;;;;;5046339;28;20425;-84
2022/09/04 07:00:52;;;;;;;21.80;20.70;;;;;;;;;;5029042;28;20462;-84
2022/09/04 07:03:25;;;;;;;21.03;19.77;;;;;;;;;;5035190;28;20992;-85
2022/09/04 07:05:55;;;;;;;20.13;19.13;;;;;;;;;;5035377;28;20444;-86
2022/09/04 07:08:28;;;;;;;21.77;20.63;;;;;;;;;;5036274;28;20457;-84
2022/09/04 07:10:59;;;;;;;22.27;20.93;;;;;;;;;;5037452;28;20726;-80
2022/09/04 07:13:39;;;;;;;21.90;20.70;;;;;;;;;;5036148;28;20469;-79
2022/09/04 07:16:16;;;;;;;20.70;19.50;;;;;;;;;;5036069;28;20411;-79
2022/09/04 07:18:53;;;;;;;21.70;20.60;;;;;;;;;;5037242;28;20470;-79
2022/09/04 07:21:25;;;;;;;21.80;20.70;;;;;;;;;;5035616;28;20417;-78
2022/09/04 07:23:55;;;;;;;22.67;21.47;;;;;;;;;;5037011;28;20476;-78
2022/09/04 07:26:25;;;;;;;23.17;21.77;;;;;;;;;;5034974;28;20390;-78
2022/09/04 07:29:00;;;;;;;22.27;21.07;;;;;;;;;;5036291;28;20479;-79
2022/09/04 07:31:34;;;;;;;22.03;20.93;;;;;;;;;;5034594;28;20475;-77
2022/09/04 07:34:07;;;;;;;23.37;22.07;;;;;;;;;;5036576;28;20830;-79
2022/09/04 07:36:39;;;;;;;21.90;20.70;;;;;;;;;;5035093;28;20409;-78
2022/09/04 07:39:11;;;;;;;23.00;21.80;;;;;;;;;;5035831;28;20929;-78
2022/09/04 07:41:43;;;;;;;22.40;21.13;;;;;;;;;;5034892;28;20431;-77
2022/09/04 07:44:13;;;;;;;22.60;21.50;;;;;;;;;;5034324;28;20497;-79
2022/09/04 07:46:47;;;;;;;22.40;21.10;;;;;;;;;;5035033;28;20439;-78
2022/09/04 07:49:18;;;;;;;22.43;21.23;;;;;;;;;;5034568;28;20450;-79
2022/09/04 07:51:49;;;;;;;22.37;21.27;;;;;;;;;;5035811;28;20506;-78
2022/09/04 07:54:34;;;;;;;22.17;20.77;;;;;;;;;;5034678;28;20986;-78
2022/09/04 07:57:10;;;;;;;22.30;21.00;;;;;;;;;;5035603;28;20420;-78
2022/09/04 07:59:51;;;;;;;22.53;21.33;;;;;;;;;;5039087;28;20480;-79
2022/09/04 08:02:24;;;;;;;21.60;20.50;;;;;;;;;;5040167;28;20460;-79
2022/09/04 08:05:04;;;;;;;21.50;20.40;;;;;;;;;;5039953;28;20445;-79
2022/09/04 08:07:49;;;;;;;22.17;21.07;;;;;;;;;;5040119;28;20807;-79
2022/09/04 08:10:25;;;;;;;23.07;21.87;;;;;;;;;;5039285;28;20468;-79
2022/09/04 08:13:11;;;;;;;23.03;21.50;;;;;;;;;;5038408;28;20404;-79
2022/09/04 08:15:42;;;;;;;21.20;20.10;;;;;;;;;;5039007;28;20430;-79
2022/09/04 08:18:24;;;;;;;20.77;19.77;;;;;;;;;;5037558;28;20461;-79
2022/09/04 08:21:00;;;;;;;21.80;20.60;;;;;;;;;;5038638;28;20439;-78
2022/09/04 08:23:35;;;;;;;22.07;20.97;;;;;;;;;;5046180;28;20443;-79
2022/09/04 08:26:12;;;;;;;21.83;20.73;;;;;;;;;;5042856;28;20449;-79
2022/09/04 08:28:55;;;;;;;22.63;21.53;;;;;;;;;;5042719;28;20552;-78
2022/09/04 08:31:28;;;;;;;23.00;21.80;;;;;;;;;;5042207;28;20443;-78
2022/09/04 08:34:08;;;;;;;21.83;20.70;;;;;;;;;;5041500;28;20474;-78
2022/09/04 08:36:52;;;;;;;23.47;22.07;;;;;;;;;;5041721;28;20411;-79
2022/09/04 08:39:24;;;;;;;21.53;20.53;;;;;;;;;;5041692;28;20449;-79
2022/09/04 08:42:21;;;;;;;21.17;19.97;;;;;;;;;;5041659;28;20395;-79
2022/09/04 08:45:06;;;;;;;22.20;21.00;;;;;;;;;;5042329;28;20401;-78
2022/09/04 08:47:52;;;;;;;23.10;21.70;;;;;;;;;;5041655;28;20434;-79
2022/09/04 08:50:34;;;;;;;23.07;21.87;;;;;;;;;;5041666;28;20441;-78
2022/09/04 08:53:16;;;;;;;22.23;21.13;;;;;;;;;;5039153;28;20532;-79
2022/09/04 08:55:56;;;;;;;22.33;21.17;;;;;;;;;;5043208;28;20828;-79
2022/09/04 08:58:39;;;;;;;22.57;21.37;;;;;;;;;;5041756;28;20825;-79
2022/09/04 09:01:25;;;;;;;22.67;21.47;;;;;;;;;;5037612;28;20484;-79
2022/09/04 09:04:04;;;;;;;22.43;21.33;;;;;;;;;;5039751;28;20958;-81
2022/09/04 09:06:48;;;;;;;22.47;21.33;;;;;;;;;;5040961;28;20386;-85
2022/09/04 09:09:27;;;;;;;22.40;21.17;;;;;;;;;;5040362;28;20453;-82
2022/09/04 09:12:06;;;;;;;22.23;21.03;;;;;;;;;;5041365;28;20397;-80
2022/09/04 09:14:53;;;;;;;22.10;21.00;;;;;;;;;;5041911;28;20460;-82
2022/09/04 09:17:28;;;;;;;21.17;20.10;;;;;;;;;;5040991;28;20826;-80
2022/09/04 09:19:59;;;;;;;21.97;20.87;;;;;;;;;;5040973;28;20483;-82
2022/09/04 09:22:38;;;;;;;21.80;20.70;;;;;;;;;;5043337;28;20793;-83
2022/09/04 09:25:20;;;;;;;22.50;21.30;;;;;;;;;;5040924;28;20485;-84
2022/09/04 09:28:12;;;;;;;20.70;19.60;;;;;;;;;;5037126;28;20509;-84
2022/09/04 09:30:52;;;;;;;23.00;21.80;;;;;;;;;;5035782;28;20414;-80
2022/09/04 09:33:38;;;;;;;21.83;20.73;;;;;;;;;;5035902;28;20446;-85
2022/09/04 09:36:22;;;;;;;21.50;20.40;;;;;;;;;;5036259;28;20435;-86
2022/09/04 09:39:00;;;;;;;21.87;20.77;;;;;;;;;;5036308;28;20438;-87
2022/09/04 09:41:52;;;;;;;22.77;21.67;;;;;;;;;;5035533;28;20418;-81
2022/09/04 09:44:45;;;;;;;21.57;20.47;;;;;;;;;;5038720;28;20513;-81
2022/09/04 09:47:27;;;;;;;23.20;22.00;;;;;;;;;;5037989;28;20426;-81
2022/09/04 09:50:10;;;;;;;21.63;20.53;;;;;;;;;;4996225;28;20453;-81
2022/09/04 09:52:49;;;;;;;23.03;21.73;;;;;;;;;;5039967;28;20441;-81
2022/09/04 09:55:34;;;;;;;21.30;20.30;;;;;;;;;;5042606;28;20485;-81
2022/09/04 09:58:23;;;;;;;22.50;21.30;;;;;;;;;;5045398;28;20557;-80
2022/09/04 10:00:58;;;;;;;22.23;21.03;;;;;;;;;;5041429;28;20407;-81
2022/09/04 10:03:43;;;;;;;22.10;21.00;;;;;;;;;;5041164;28;20433;-82
2022/09/04 10:06:40;;;;;;;23.33;22.00;;;;;;;;;;5040014;28;20431;-82
2022/09/04 10:09:24;;;;;;;21.43;20.30;;;;;;;;;;4956370;28;21045;-82
2022/09/04 10:12:01;;;;;;;22.07;20.97;;;;;;;;;;5029650;28;20938;-82
2022/09/04 10:14:47;;;;;;;22.43;21.23;;;;;;;;;;5037042;28;20462;-86
2022/09/04 10:17:34;;;;;;;22.37;21.27;;;;;;;;;;5027275;28;20455;-84
2022/09/04 10:20:16;;;;;;;22.87;21.67;;;;;;;;;;5037747;28;20457;-84
2022/09/04 10:22:50;;;;;;;22.20;21.00;;;;;;;;;;5021230;28;20478;-83
2022/09/04 10:25:44;;;;;;;22.77;21.67;;;;;;;;;;5037898;28;20505;-84
2022/09/04 10:28:24;;;;;;;22.50;21.37;;;;;;;;;;4992506;28;20430;-83
2022/09/04 10:31:11;;;;;;;22.70;21.50;;;;;;;;;;5037057;28;20427;-82
2022/09/04 10:33:46;;;;;;;22.80;21.70;;;;;;;;;;5039746;28;20466;-82
2022/09/04 10:36:19;;;;;;;23.63;22.30;;;;;;;;;;5048252;28;20428;-83
2022/09/04 10:41:57;;;;;;;21.80;20.67;;;;;;;;;;5040999;28;20412;-83
2022/09/04 10:44:30;;;;;;;22.17;21.07;;;;;;;;;;5041059;28;20438;-83
2022/09/04 10:47:03;;;;;;;22.77;21.67;;;;;;;;;;5042228;28;20429;-83
2022/09/04 10:49:49;;;;;;;23.10;21.80;;;;;;;;;;5044699;28;20782;-77
2022/09/04 10:52:34;;;;;;;22.80;21.60;;;;;;;;;;5044490;28;20940;-78
2022/09/04 10:55:20;;;;;;;22.70;21.50;;;;;;;;;;5045473;28;20495;-77
2022/09/04 10:58:00;;;;;;;23.50;22.30;;;;;;;;;;5044107;28;20473;-78
2022/09/04 11:00:31;;;;;;;23.40;22.20;;;;;;;;;;5043672;28;20460;-78
2022/09/04 11:03:15;;;;;;;22.80;21.60;;;;;;;;;;5043727;28;20479;-78
2022/09/04 11:06:07;;;;;;;22.37;21.17;;;;;;;;;;5043056;28;20395;-78
2022/09/04 11:08:49;;;;;;;22.40;21.30;;;;;;;;;;5041140;28;20834;-78
2022/09/04 11:11:31;;;;;;;24.60;23.20;;;;;;;;;;5025240;28;20511;-78
2022/09/04 11:14:08;;;;;;;22.50;21.40;;;;;;;;;;5039833;28;20454;-79
2022/09/04 11:16:47;;;;;;;22.97;21.87;;;;;;;;;;5040510;28;20411;-78
2022/09/04 11:19:31;;;;;;;25.07;23.57;;;;;;;;;;5041721;28;20468;-77
2022/09/04 11:22:18;;;;;;;22.60;21.40;;;;;;;;;;5041394;28;20434;-80
2022/09/04 11:25:03;;;;;;;21.90;20.80;;;;;;;;;;5043973;28;20414;-80
2022/09/04 11:27:48;;;;;;;22.90;21.70;;;;;;;;;;5041806;28;20960;-79
2022/09/04 11:30:19;;;;;;;23.53;22.33;;;;;;;;;;5034551;28;20458;-80
2022/09/04 11:32:53;;;;;;;22.60;21.30;;;;;;;;;;5040206;28;20906;-78
2022/09/04 11:35:40;;;;;;;22.80;21.60;;;;;;;;;;5041103;28;20525;-80
2022/09/04 11:38:19;;;;;;;23.83;22.23;;;;;;;;;;5040219;28;20459;-78
2022/09/04 11:41:06;;;;;;;23.77;22.40;;;;;;;;;;5039580;28;20417;-80
2022/09/04 11:43:49;;;;;;;22.80;21.60;;;;;;;;;;5039774;28;20477;-79
2022/09/04 11:46:31;;;;;;;23.00;21.90;;;;;;;;;;5039557;28;20439;-81
2022/09/04 11:49:12;;;;;;;23.00;21.80;;;;;;;;;;5037774;28;20458;-81
2022/09/04 11:52:01;;;;;;;22.50;21.33;;;;;;;;;;5040289;28;20450;-84
2022/09/04 11:54:35;;;;;;;22.17;20.87;;;;;;;;;;5012584;28;21044;-83
2022/09/04 11:57:05;;;;;;;21.90;20.70;;;;;;;;;;5047395;28;20491;-82
2022/09/04 11:59:38;;;;;;;23.23;21.93;;;;;;;;;;5045422;28;20458;-83
2022/09/04 12:02:15;;;;;;;22.93;21.73;;;;;;;;;;5044730;28;20435;-83
2022/09/04 12:04:59;;;;;;;23.30;21.97;;;;;;;;;;5042904;28;20423;-82
2022/09/04 12:07:33;;;;;;;23.93;22.73;;;;;;;;;;5040265;28;20487;-82
2022/09/04 12:10:17;;;;;;;23.77;21.83;;;;;;;;;;5043209;28;20462;-78
2022/09/04 12:12:59;;;;;;;22.83;21.63;;;;;;;;;;5044464;28;20431;-77
2022/09/04 12:15:53;;;;;;;22.57;21.40;;;;;;;;;;5046065;28;20486;-82
2022/09/04 12:18:40;;;;;;;22.87;21.67;;;;;;;;;;5040839;28;21031;-81
2022/09/04 12:21:18;;;;;;;23.50;22.00;;;;;;;;;;5026747;28;20426;-80
2022/09/04 12:23:56;;;;;;;21.90;20.70;;;;;;;;;;5037644;28;20486;-77
2022/09/04 12:26:42;;;;;;;22.60;21.40;;;;;;;;;;5038311;28;20411;-77
2022/09/04 12:29:30;;;;;;;22.90;21.70;;;;;;;;;;5037335;28;20454;-77
2022/09/04 12:32:12;;;;;;;23.20;22.00;;;;;;;;;;5043230;28;20428;-81
2022/09/04 12:34:57;;;;;;;22.53;21.33;;;;;;;;;;5058027;28;20500;-77
2022/09/04 12:37:41;;;;;;;22.30;21.20;;;;;;;;;;5057414;28;20465;-77
2022/09/04 12:40:23;;;;;;;21.17;20.07;;;;;;;;;;5055845;28;20479;-78
2022/09/04 12:42:58;;;;;;;22.00;20.90;;;;;;;;;;5056283;28;20452;-77
2022/09/04 12:45:30;;;;;;;21.40;20.30;;;;;;;;;;5056022;28;20475;-78
2022/09/04 12:48:03;;;;;;;22.60;21.40;;;;;;;;;;5060288;28;20509;-78
2022/09/04 12:50:35;;;;;;;22.10;20.90;;;;;;;;;;5058611;28;20500;-76
2022/09/04 12:53:24;;;;;;;22.03;20.83;;;;;;;;;;5054616;28;20946;-78
2022/09/04 12:55:59;;;;;;;22.17;21.07;;;;;;;;;;5051863;28;20479;-77
2022/09/04 12:58:32;;;;;;;22.67;21.37;;;;;;;;;;5049865;28;20480;-78
2022/09/04 13:01:07;;;;;;;22.70;21.50;;;;;;;;;;5057686;28;20507;-83
2022/09/04 13:03:38;;;;;;;22.03;20.93;;;;;;;;;;5054907;28;20455;-79
2022/09/04 13:06:15;;;;;;;22.27;21.10;;;;;;;;;;5042856;28;20454;-83
2022/09/04 13:08:47;;;;;;;21.73;20.63;;;;;;;;;;5037814;28;20465;-83
2022/09/04 13:11:22;;;;;;;22.53;21.33;;;;;;;;;;5038435;28;20969;-83
2022/09/04 13:13:55;;;;;;;21.50;20.40;;;;;;;;;;5040088;28;20901;-82
2022/09/04 13:16:28;;;;;;;22.37;21.17;;;;;;;;;;5039072;28;21004;-83
2022/09/04 13:19:02;;;;;;;21.97;20.87;;;;;;;;;;5039480;28;20443;-83
2022/09/04 13:21:40;;;;;;;21.13;20.03;;;;;;;;;;5040132;28;20469;-78
2022/09/04 13:24:18;;;;;;;22.23;21.00;;;;;;;;;;5041942;28;20575;-79
2022/09/04 13:26:55;;;;;;;21.33;20.23;;;;;;;;;;5040802;28;20416;-83
2022/09/04 13:29:30;;;;;;;21.43;20.13;;;;;;;;;;5042730;28;20481;-80
2022/09/04 13:32:09;;;;;;;22.40;21.07;;;;;;;;;;5046449;28;20442;-82
2022/09/04 13:34:43;;;;;;;20.53;19.43;;;;;;;;;;5056991;28;20496;-83
2022/09/04 13:37:15;;;;;;;21.50;20.40;;;;;;;;;;5061157;28;20435;-77
2022/09/04 13:39:50;;;;;;;21.10;20.00;;;;;;;;;;5058088;28;20901;-82
2022/09/04 13:42:32;;;;;;;20.30;19.30;;;;;;;;;;5058302;28;20467;-82
2022/09/04 13:45:04;;;;;;;21.03;20.03;;;;;;;;;;5058919;28;20470;-82
2022/09/04 13:47:37;;;;;;;20.60;19.50;;;;;;;;;;5057174;28;20406;-83
2022/09/04 13:50:08;;;;;;;21.10;20.00;;;;;;;;;;5058407;28;20457;-83
2022/09/04 13:52:38;;;;;;;22.20;21.00;;;;;;;;;;5058924;28;20462;-83
2022/09/04 13:55:08;;;;;;;21.13;19.93;;;;;;;;;;5054029;28;20513;-79
2022/09/04 13:57:41;;;;;;;20.40;19.30;;;;;;;;;;5034596;28;20465;-78
2022/09/04 14:00:11;;;;;;;20.90;19.80;;;;;;;;;;5035237;28;20467;-79
2022/09/04 14:02:39;;;;;;;20.40;19.30;;;;;;;;;;5035129;28;20448;-78
2022/09/04 14:05:10;;;;;;;21.20;20.10;;;;;;;;;;5035824;28;20413;-78
2022/09/04 14:07:43;;;;;;;20.87;19.57;;;;;;;;;;5040260;28;20446;-80
2022/09/04 14:10:13;;;;;;;21.00;19.80;;;;;;;;;;5045961;28;20486;-79
2022/09/04 14:13:04;;;;;;;21.20;20.00;;;;;;;;;;5039986;28;20763;-77
2022/09/04 14:15:44;;;;;;;21.57;20.37;;;;;;;;;;5014698;28;20485;-78
2022/09/04 14:18:30;;;;;;;21.87;20.70;;;;;;;;;;5034662;28;20436;-77
2022/09/04 14:21:00;;;;;;;21.97;20.87;;;;;;;;;;5036173;28;20440;-78
2022/09/04 14:23:33;;;;;;;21.93;20.73;;;;;;;;;;5044280;28;20413;-77
2022/09/04 14:26:05;;;;;;;21.33;20.23;;;;;;;;;;5045530;28;20436;-79
2022/09/04 14:28:39;;;;;;;21.37;20.27;;;;;;;;;;5042668;28;20992;-78
2022/09/04 14:31:13;;;;;;;21.87;20.50;;;;;;;;;;5035447;28;20451;-78
2022/09/04 14:33:45;;;;;;;21.73;20.63;;;;;;;;;;5034786;28;20415;-77
2022/09/04 14:36:20;;;;;;;21.70;20.60;;;;;;;;;;5034861;28;20509;-78
2022/09/04 14:39:00;;;;;;;21.90;20.80;;;;;;;;;;5034843;28;20938;-78
2022/09/04 14:41:33;;;;;;;21.07;19.97;;;;;;;;;;5034559;28;20405;-77
2022/09/04 14:44:05;;;;;;;21.27;20.17;;;;;;;;;;5034919;28;20453;-77
2022/09/04 14:46:37;;;;;;;21.53;20.43;;;;;;;;;;5037848;28;20408;-77
2022/09/04 14:49:07;;;;;;;21.67;20.47;;;;;;;;;;5036471;28;20441;-78
2022/09/04 14:51:35;;;;;;;21.93;20.73;;;;;;;;;;5036928;28;20462;-77
2022/09/04 14:54:03;;;;;;;21.17;20.07;;;;;;;;;;5041266;28;20470;-77
2022/09/04 14:56:34;;;;;;;22.10;20.90;;;;;;;;;;5036942;28;20461;-78
2022/09/04 14:59:07;;;;;;;22.37;21.17;;;;;;;;;;5036831;28;20457;-78
2022/09/04 15:01:37;;;;;;;21.80;20.70;;;;;;;;;;5036229;28;20417;-78
2022/09/04 15:04:07;;;;;;;21.10;20.00;;;;;;;;;;5035870;28;20829;-77
2022/09/04 15:06:36;;;;;;;21.07;19.97;;;;;;;;;;5037572;28;20471;-78
2022/09/04 15:09:18;;;;;;;21.33;20.23;;;;;;;;;;5039794;28;20465;-78
2022/09/04 15:11:46;;;;;;;21.40;20.30;;;;;;;;;;5043351;28;20938;-78